Time;durP1;ratioP1;P1;durP2;ratioP2;P2;SDS_P1;SDS_P2;PMS_P1;PMS_P2;Temp;Humidity;BMP_temperature;BMP_pressure;BME280_temperature;BME280_humidity;BME280_pressure;Samples;Min_cycle;Max_cycle;Signal;HPM_P1;HPM_P2
2022/01/18 00:00:15;;;;;;;5.00;2.92;;;;;;;4.61;77.17;100437.19;4989933;28;20038;-73
2022/01/18 00:02:41;;;;;;;5.70;3.05;;;;;;;4.55;77.95;100441.94;4989874;28;20170;-76
2022/01/18 00:05:13;;;;;;;5.13;2.80;;;;;;;4.50;78.22;100439.09;4992139;28;20057;-74
2022/01/18 00:07:39;;;;;;;4.95;2.80;;;;;;;4.36;79.40;100422.91;5051988;28;20043;-75
2022/01/18 00:10:05;;;;;;;3.45;2.15;;;;;;;4.25;80.16;100418.81;5042444;28;20039;-77
2022/01/18 00:15:17;;;;;;;4.32;2.10;;;;;;;4.32;81.46;100451.59;5066152;28;20392;-77
2022/01/18 00:17:51;;;;;;;4.15;2.53;;;;;;;4.25;82.35;100459.69;5064078;28;20032;-74
2022/01/18 00:20:22;;;;;;;4.97;2.63;;;;;;;4.26;82.55;100471.69;5071726;28;20052;-75
2022/01/18 00:22:47;;;;;;;4.72;2.00;;;;;;;4.25;81.83;100477.59;5065813;28;20032;-71
2022/01/18 00:25:13;;;;;;;3.05;1.92;;;;;;;4.26;82.52;100483.56;5062879;28;20028;-75
2022/01/18 00:27:38;;;;;;;2.70;1.55;;;;;;;4.28;82.23;100466.69;5063681;28;20024;-73
2022/01/18 00:32:48;;;;;;;3.38;2.00;;;;;;;4.35;82.95;100464.59;5067139;28;20585;-76
2022/01/18 00:35:14;;;;;;;5.05;1.80;;;;;;;4.27;84.30;100449.56;5072784;28;20021;-74
2022/01/18 00:37:50;;;;;;;3.55;2.10;;;;;;;4.33;86.14;100488.28;5091546;28;20028;-77
2022/01/18 00:40:16;;;;;;;3.38;1.90;;;;;;;4.37;87.58;100480.91;5091788;28;20036;-73
2022/01/18 00:42:41;;;;;;;2.72;2.03;;;;;;;4.07;88.39;100420.22;5091922;28;20371;-76
2022/01/18 00:45:07;;;;;;;3.50;2.00;;;;;;;4.46;88.77;100479.69;5073588;28;20478;-75
2022/01/18 00:47:32;;;;;;;4.18;2.05;;;;;;;4.64;88.48;100485.06;5091498;28;20112;-77
2022/01/18 00:50:01;;;;;;;3.65;1.63;;;;;;;4.58;89.10;100485.56;5091851;28;20038;-74
2022/01/18 00:52:29;;;;;;;2.13;1.60;;;;;;;4.48;89.25;100475.56;5091283;28;20744;-73
2022/01/18 00:54:54;;;;;;;3.38;2.15;;;;;;;4.66;90.14;100503.91;5091529;28;20107;-73
2022/01/18 00:57:20;;;;;;;3.60;1.77;;;;;;;4.55;89.73;100495.63;5091728;28;20102;-77
2022/01/18 00:59:47;;;;;;;3.47;1.88;;;;;;;4.40;89.74;100474.19;5091372;28;20032;-77
2022/01/18 01:02:16;;;;;;;4.30;2.25;;;;;;;4.66;90.78;100526.94;5073265;28;20405;-79
2022/01/18 01:04:47;;;;;;;2.72;1.70;;;;;;;4.61;90.84;100529.25;5072889;28;20032;-76
2022/01/18 01:07:14;;;;;;;3.13;1.95;;;;;;;4.43;91.85;100505.94;5072591;28;20122;-78
2022/01/18 01:09:39;;;;;;;3.35;2.10;;;;;;;4.59;92.37;100528.25;5072407;28;20127;-77
2022/01/18 01:12:06;;;;;;;4.28;2.17;;;;;;;4.51;92.88;100519.19;5090924;28;20031;-76
2022/01/18 01:14:32;;;;;;;3.38;2.00;;;;;;;4.47;93.33;100532.59;5091009;28;20482;-77
2022/01/18 01:17:07;;;;;;;5.15;2.13;;;;;;;4.43;94.06;100517.88;5073203;28;20048;-77
2022/01/18 01:31:56;;;;;;;3.58;1.92;;;;;;;4.45;94.61;100539.28;5075964;28;20077;-73
2022/01/18 01:44:05;;;;;;;4.30;2.30;;;;;;;4.08;100.00;100649.38;5070631;28;20085;-73
2022/01/18 01:46:32;;;;;;;5.83;2.70;;;;;;;3.97;100.00;100661.44;5070508;28;20048;-72
2022/01/18 01:48:59;;;;;;;4.10;2.30;;;;;;;3.72;100.00;100683.66;5070195;28;20284;-72
2022/01/18 01:51:30;;;;;;;4.20;2.05;;;;;;;2.91;100.00;100678.91;5070475;28;20085;-69
2022/01/18 01:54:08;;;;;;;3.55;2.25;;;;;;;2.71;100.00;100687.69;5069731;28;20106;-71
2022/01/18 01:56:35;;;;;;;6.67;2.20;;;;;;;2.50;100.00;100727.78;5070463;28;20063;-70
2022/01/18 01:59:02;;;;;;;2.27;1.63;;;;;;;2.28;100.00;100740.59;5052825;28;20029;-70
2022/01/18 02:01:28;;;;;;;4.53;2.10;;;;;;;1.89;100.00;100686.81;5070139;28;20107;-72
2022/01/18 02:03:53;;;;;;;4.43;1.73;;;;;;;2.01;100.00;100697.03;5070495;28;20105;-71
2022/01/18 02:06:19;;;;;;;3.00;2.00;;;;;;;1.88;100.00;100674.84;5070558;28;20414;-74
2022/01/18 02:08:45;;;;;;;3.80;1.80;;;;;;;1.94;100.00;100699.13;5070542;28;20123;-73
2022/01/18 02:11:11;;;;;;;4.10;2.40;;;;;;;1.89;100.00;100705.50;5070213;28;20033;-69
2022/01/18 02:13:37;;;;;;;4.57;2.50;;;;;;;1.85;100.00;100692.44;5070457;28;20028;-73
2022/01/18 02:21:46;;;;;;;3.97;2.63;;;;;;;1.76;100.00;100679.91;5071131;28;20501;-71
2022/01/18 02:24:05;;;;;;;4.93;2.50;;;;;;;1.74;100.00;100686.53;5074004;28;20046;-72
2022/01/18 02:26:31;;;;;;;2.47;1.63;;;;;;;1.66;100.00;100677.41;5074644;28;20074;-75
2022/01/18 02:29:06;;;;;;;4.57;2.47;;;;;;;1.68;100.00;100670.81;5074127;28;20727;-71
2022/01/18 02:31:32;;;;;;;4.97;2.40;;;;;;;1.66;100.00;100691.06;5074484;28;20059;-71
2022/01/18 02:34:06;;;;;;;4.07;2.30;;;;;;;1.65;100.00;100696.91;5073923;28;20410;-72
2022/01/18 02:36:32;;;;;;;3.27;2.00;;;;;;;1.64;100.00;100699.34;5073871;28;20510;-70
2022/01/18 02:38:57;;;;;;;3.67;2.00;;;;;;;1.72;100.00;100700.78;5073737;28;20028;-71
2022/01/18 02:41:26;;;;;;;3.87;2.10;;;;;;;1.71;100.00;100706.69;5073916;28;20553;-70
2022/01/18 02:43:55;;;;;;;4.40;1.87;;;;;;;1.71;100.00;100716.84;5073886;28;20029;-73
2022/01/18 02:46:21;;;;;;;5.57;1.85;;;;;;;1.72;100.00;100713.53;5073938;28;20035;-72
2022/01/18 02:48:47;;;;;;;3.70;1.77;;;;;;;1.65;100.00;100718.94;5074118;28;20032;-74
2022/01/18 02:51:12;;;;;;;2.90;1.57;;;;;;;1.59;100.00;100714.25;5073489;28;20032;-73
2022/01/18 02:53:52;;;;;;;2.90;1.63;;;;;;;1.67;100.00;100727.56;5073551;28;20042;-72
2022/01/18 02:56:18;;;;;;;2.97;1.73;;;;;;;1.64;100.00;100719.69;5073658;28;20111;-71
2022/01/18 02:58:43;;;;;;;4.33;1.97;;;;;;;1.55;100.00;100724.97;5055882;28;20538;-72
2022/01/18 03:03:53;;;;;;;3.07;1.70;;;;;;;1.58;100.00;100758.28;5073304;28;20079;-72
2022/01/18 03:06:18;;;;;;;3.33;1.73;;;;;;;1.59;100.00;100785.50;5073573;28;20084;-72
2022/01/18 03:08:44;;;;;;;3.00;1.67;;;;;;;1.57;100.00;100781.94;5073433;28;20033;-76
2022/01/18 03:14:31;;;;;;;2.70;1.60;;;;;;;1.42;100.00;100774.00;5255770;22;20091;-72
2022/01/18 03:16:57;;;;;;;2.93;1.90;;;;;;;1.50;100.00;100800.06;5079622;28;20032;-68
2022/01/18 03:19:22;;;;;;;3.30;1.77;;;;;;;1.58;100.00;100814.25;5073752;28;20029;-70
2022/01/18 03:21:49;;;;;;;3.17;1.83;;;;;;;1.60;100.00;100825.47;5073765;28;20086;-73
2022/01/18 03:29:36;;;;;;;4.27;2.43;;;;;;;1.64;99.47;100858.00;5073801;28;20044;-74
2022/01/18 03:32:02;;;;;;;3.30;2.10;;;;;;;0.98;99.52;100758.66;5073591;28;20037;-70
2022/01/18 03:34:28;;;;;;;3.93;2.23;;;;;;;1.61;99.86;100863.75;5072457;28;20033;-71
2022/01/18 03:36:55;;;;;;;4.83;2.47;;;;;;;1.62;99.26;100890.09;5073484;28;20512;-72
2022/01/18 03:39:21;;;;;;;6.07;2.47;;;;;;;1.55;100.00;100895.47;5072961;28;20482;-73
2022/01/18 03:41:57;;;;;;;5.50;2.77;;;;;;;1.43;100.00;100892.81;5073584;28;20119;-73
2022/01/18 03:44:25;;;;;;;4.07;1.93;;;;;;;1.51;100.00;100903.59;5073618;28;20024;-73
2022/01/18 03:46:53;;;;;;;6.17;2.10;;;;;;;1.60;98.94;100934.88;5073277;28;20456;-74
2022/01/18 03:49:20;;;;;;;4.67;2.27;;;;;;;1.61;99.37;100946.84;5073234;28;20048;-74
2022/01/18 03:51:45;;;;;;;5.77;2.30;;;;;;;1.53;99.01;100927.50;5072986;28;20025;-70
2022/01/18 03:54:13;;;;;;;5.57;2.53;;;;;;;1.62;99.69;100948.63;5073294;28;20039;-69
2022/01/18 03:56:38;;;;;;;6.13;2.70;;;;;;;1.62;99.13;100956.28;5073046;28;20078;-69
2022/01/18 03:59:04;;;;;;;4.97;2.20;;;;;;;1.56;100.00;100963.41;5073000;28;20060;-70
2022/01/18 04:01:29;;;;;;;3.63;2.00;;;;;;;1.38;99.09;100935.69;5073091;28;20494;-70
2022/01/18 04:03:55;;;;;;;3.53;2.20;;;;;;;1.66;99.08;100986.28;5072967;28;20088;-71
2022/01/18 04:06:20;;;;;;;4.53;2.17;;;;;;;1.59;98.78;100996.72;5072803;28;20028;-73
2022/01/18 04:08:45;;;;;;;7.63;3.70;;;;;;;1.59;98.50;101000.16;5072799;28;20526;-68
2022/01/18 04:11:11;;;;;;;10.03;3.47;;;;;;;1.66;98.26;101013.38;5072723;28;20081;-71
2022/01/18 04:13:36;;;;;;;17.13;4.47;;;;;;;1.41;98.69;100986.81;5072792;28;20067;-69
2022/01/18 04:16:02;;;;;;;9.23;3.83;;;;;;;1.57;98.15;101024.59;5072791;28;20147;-71
2022/01/18 04:18:46;;;;;;;4.17;2.60;;;;;;;1.44;97.24;101012.50;5072630;28;20067;-67
2022/01/18 04:29:09;;;;;;;5.47;2.17;;;;;;;1.37;94.32;101081.47;5084168;28;20036;-70
2022/01/18 04:31:34;;;;;;;3.77;2.07;;;;;;;1.15;93.58;101068.59;5083389;28;20154;-72
2022/01/18 04:34:00;;;;;;;2.83;1.87;;;;;;;1.31;90.78;101080.06;5072231;28;20071;-72
2022/01/18 04:36:27;;;;;;;2.93;1.50;;;;;;;0.98;87.47;101023.06;5077644;28;20039;-73
2022/01/18 04:38:52;;;;;;;1.87;1.20;;;;;;;1.47;83.93;101072.97;5092302;28;20031;-70
2022/01/18 04:41:24;;;;;;;3.80;1.60;;;;;;;1.51;82.89;101058.81;5092292;28;20032;-69
2022/01/18 04:48:23;;;;;;;2.77;1.30;;;;;;;1.55;82.76;101055.78;5091807;28;20039;-75
2022/01/18 04:49:22;;;;;;;3.30;1.23;;;;;;;1.22;81.91;101042.94;5092345;28;20414;-72
2022/01/18 04:51:48;;;;;;;5.50;1.47;;;;;;;1.50;80.93;101069.78;5077523;28;20029;-71
2022/01/18 04:54:15;;;;;;;2.23;1.30;;;;;;;1.52;80.16;101092.03;5064543;28;20021;-71
2022/01/18 04:59:09;;;;;;;2.93;1.23;;;;;;;1.54;79.88;101094.72;5062580;28;20510;-72
2022/01/18 05:01:36;;;;;;;2.33;1.50;;;;;;;1.49;78.72;101095.97;5071343;28;20036;-74
2022/01/18 05:04:01;;;;;;;3.07;1.23;;;;;;;1.39;78.97;101082.47;5071547;28;20028;-70
2022/01/18 05:06:27;;;;;;;2.30;1.80;;;;;;;1.34;80.07;101095.59;5071347;28;20033;-70
2022/01/18 05:08:53;;;;;;;3.27;1.30;;;;;;;1.39;80.42;101102.81;5071078;28;20457;-70
2022/01/18 05:11:21;;;;;;;3.67;1.87;;;;;;;1.23;81.65;101113.34;5067910;28;20055;-70
2022/01/18 05:21:34;;;;;;;3.33;1.47;;;;;;;0.72;84.21;101081.06;5062105;28;20031;-73
2022/01/18 05:24:00;;;;;;;4.10;1.40;;;;;;;0.82;83.55;101102.22;5061445;28;20024;-72
2022/01/18 05:26:27;;;;;;;3.20;1.53;;;;;;;0.74;82.39;101091.41;5060341;28;20041;-71
2022/01/18 05:28:52;;;;;;;1.90;1.30;;;;;;;0.75;82.33;101090.66;5063432;28;20034;-72
2022/01/18 05:31:18;;;;;;;2.13;1.40;;;;;;;0.87;83.09;101131.47;5069737;28;20090;-69
2022/01/18 05:33:43;;;;;;;5.97;2.30;;;;;;;0.83;83.97;101145.56;5070452;28;20024;-73
2022/01/18 05:36:10;;;;;;;6.90;2.20;;;;;;;0.67;84.22;101139.91;5034805;28;20086;-72
2022/01/18 05:38:37;;;;;;;6.37;3.23;;;;;;;0.72;83.61;101166.59;5061495;28;20095;-74
2022/01/18 05:41:04;;;;;;;4.97;1.90;;;;;;;0.64;83.91;101159.19;5066422;28;20032;-72
2022/01/18 05:43:30;;;;;;;3.67;1.80;;;;;;;0.28;83.33;101106.94;5047077;28;20029;-74
2022/01/18 05:45:55;;;;;;;2.73;1.40;;;;;;;0.54;83.28;101169.31;5062257;28;20433;-76
2022/01/18 05:48:21;;;;;;;5.13;1.77;;;;;;;0.52;82.84;101172.47;5067151;28;20024;-74
2022/01/18 05:50:46;;;;;;;2.43;1.30;;;;;;;0.46;83.98;101185.50;5062024;28;20038;-74
2022/01/18 05:53:12;;;;;;;2.53;1.40;;;;;;;0.56;82.41;101210.09;5062092;28;20489;-73
2022/01/18 05:55:38;;;;;;;4.03;1.70;;;;;;;0.50;82.47;101207.00;5068278;28;20039;-73
2022/01/18 05:58:03;;;;;;;2.07;1.03;;;;;;;0.47;81.11;101200.91;5061812;28;20478;-73
2022/01/18 06:00:30;;;;;;;4.53;1.30;;;;;;;0.58;81.48;101232.34;5066056;28;20107;-73
2022/01/18 06:08:07;;;;;;;2.40;1.37;;;;;;;0.69;80.31;101266.34;5061062;28;20027;-74
2022/01/18 06:10:32;;;;;;;4.13;1.33;;;;;;;0.73;79.79;101282.75;5060316;28;20466;-75
2022/01/18 06:13:01;;;;;;;3.27;1.47;;;;;;;0.80;80.24;101283.44;5040898;28;20039;-74
2022/01/18 06:15:27;;;;;;;3.97;1.65;;;;;;;0.78;79.96;101290.03;5059958;28;20039;-75
2022/01/18 06:17:52;;;;;;;3.37;1.90;;;;;;;0.80;78.52;101280.91;5067696;28;20029;-73
2022/01/18 06:20:18;;;;;;;3.83;1.60;;;;;;;0.94;75.76;101281.25;5058761;28;20025;-74
2022/01/18 06:22:43;;;;;;;7.87;2.77;;;;;;;0.98;73.21;101278.19;5061264;28;20368;-74
2022/01/18 06:25:09;;;;;;;3.47;1.77;;;;;;;1.09;73.65;101282.56;5069835;28;20044;-75
2022/01/18 06:27:35;;;;;;;6.57;2.33;;;;;;;1.21;72.90;101307.28;5066905;28;20033;-75
2022/01/18 06:30:01;;;;;;;7.63;2.80;;;;;;;1.14;74.43;101285.53;5059000;28;20025;-75
2022/01/18 06:32:26;;;;;;;8.60;2.80;;;;;;;1.23;73.86;101295.63;5060797;28;20036;-75
2022/01/18 06:34:52;;;;;;;4.67;1.70;;;;;;;1.20;73.18;101290.28;5041699;28;20029;-74
2022/01/18 06:37:19;;;;;;;3.17;1.53;;;;;;;1.28;73.52;101304.53;5024348;28;20094;-74
2022/01/18 06:39:45;;;;;;;1.30;1.00;;;;;;;1.31;72.33;101297.19;5059617;28;20425;-74
2022/01/18 06:42:12;;;;;;;2.27;1.20;;;;;;;1.35;70.87;101296.69;5060764;28;20023;-73
2022/01/18 06:44:37;;;;;;;2.80;1.40;;;;;;;1.39;70.90;101314.00;5058330;28;20063;-73
2022/01/18 06:47:03;;;;;;;2.80;1.40;;;;;;;1.14;70.63;101252.47;5063859;28;20061;-74
2022/01/18 06:49:28;;;;;;;3.57;1.50;;;;;;;1.14;71.41;101257.56;5060696;28;20032;-74
2022/01/18 06:51:54;;;;;;;5.27;1.60;;;;;;;1.38;72.60;101309.66;5059521;28;20059;-73
2022/01/18 06:54:20;;;;;;;3.10;1.70;;;;;;;1.48;72.95;101318.13;5059291;28;20077;-72
2022/01/18 06:56:48;;;;;;;4.20;1.70;;;;;;;1.51;72.99;101323.47;5061474;28;20402;-73
2022/01/18 06:59:15;;;;;;;3.75;1.75;;;;;;;1.59;72.65;101327.56;5057791;28;20032;-73
2022/01/18 07:01:40;;;;;;;2.47;1.20;;;;;;;1.66;73.21;101337.53;5060379;28;20036;-73
2022/01/18 07:04:06;;;;;;;4.10;1.50;;;;;;;1.54;73.12;101298.28;5058337;28;20021;-73
2022/01/18 07:06:33;;;;;;;4.77;1.23;;;;;;;1.79;71.69;101316.56;5060214;28;20430;-73
2022/01/18 07:08:59;;;;;;;1.93;1.10;;;;;;;1.67;71.63;101298.59;5063439;28;20025;-73
2022/01/18 07:11:25;;;;;;;5.47;1.83;;;;;;;1.97;72.57;101334.16;5061850;28;20509;-73
2022/01/18 07:13:50;;;;;;;4.53;1.40;;;;;;;2.01;72.55;101326.94;5068904;28;20040;-73
2022/01/18 07:16:16;;;;;;;3.17;1.63;;;;;;;2.07;73.22;101330.00;5066466;28;20032;-73
2022/01/18 07:18:41;;;;;;;9.03;1.70;;;;;;;2.16;72.42;101342.63;5062361;28;20025;-73
2022/01/18 07:21:09;;;;;;;3.77;1.50;;;;;;;2.24;73.27;101349.28;5063218;28;20112;-73
2022/01/18 07:23:34;;;;;;;3.37;1.40;;;;;;;2.08;73.67;101311.41;5063891;28;20027;-73
2022/01/18 07:26:00;;;;;;;3.33;1.40;;;;;;;2.14;72.39;101307.59;5064775;28;20037;-73
2022/01/18 07:28:25;;;;;;;16.63;4.37;;;;;;;2.53;72.93;101372.84;5068081;28;20479;-73
2022/01/18 07:30:51;;;;;;;3.07;1.30;;;;;;;2.53;71.63;101395.78;5071376;28;20410;-73
2022/01/18 07:33:17;;;;;;;4.37;1.53;;;;;;;2.29;72.00;101330.91;5062452;28;20399;-73
2022/01/18 07:35:43;;;;;;;2.57;1.40;;;;;;;2.67;71.47;101372.34;5062375;28;20074;-73
2022/01/18 07:38:12;;;;;;;4.57;1.80;;;;;;;2.57;73.46;101341.78;5063687;28;20016;-73
2022/01/18 07:40:39;;;;;;;7.00;2.20;;;;;;;2.90;72.15;101389.56;5062308;28;20017;-73
2022/01/18 07:43:04;;;;;;;5.22;2.20;;;;;;;2.86;71.14;101379.84;5065877;28;20025;-73
2022/01/18 07:45:31;;;;;;;4.78;1.95;;;;;;;2.85;70.67;101380.63;5066768;28;20032;-73
2022/01/18 07:47:56;;;;;;;2.88;1.52;;;;;;;2.72;68.42;101352.34;5061617;28;20025;-73
2022/01/18 07:50:22;;;;;;;3.90;1.70;;;;;;;2.94;65.04;101388.16;5061971;28;20025;-73
2022/01/18 07:52:48;;;;;;;2.45;1.30;;;;;;;2.55;65.90;101339.06;5068797;28;20462;-73
2022/01/18 07:55:14;;;;;;;2.60;1.73;;;;;;;2.81;66.91;101395.56;5072517;28;20024;-73
2022/01/18 07:57:42;;;;;;;3.90;1.60;;;;;;;2.95;68.07;101410.34;5071977;28;20024;-73
2022/01/18 08:00:09;;;;;;;5.68;1.70;;;;;;;2.84;68.30;101370.31;5072358;28;20437;-72
2022/01/18 08:02:36;;;;;;;3.87;1.70;;;;;;;3.02;69.24;101401.56;5072310;28;20022;-72
2022/01/18 08:05:06;;;;;;;4.97;1.50;;;;;;;3.07;69.28;101413.91;5072348;28;20059;-73
2022/01/18 08:07:31;;;;;;;;;;;;;;;3.02;69.18;101427.94;5072202;28;20068;-72
2022/01/18 08:09:57;;;;;;;5.80;1.55;;;;;;;2.89;68.36;101362.28;5069341;28;20373;-73
2022/01/18 08:12:23;;;;;;;3.97;1.58;;;;;;;3.16;68.90;101417.97;5058971;28;20540;-74
2022/01/18 08:14:50;;;;;;;2.45;1.65;;;;;;;3.16;66.84;101417.97;5066453;28;20044;-74
2022/01/18 08:17:16;;;;;;;4.75;1.58;;;;;;;3.10;66.64;101402.19;5065509;28;20119;-74
2022/01/18 08:19:42;;;;;;;1.98;1.13;;;;;;;3.08;66.09;101405.47;5062153;28;20473;-73
2022/01/18 08:22:09;;;;;;;2.92;1.35;;;;;;;3.24;66.42;101429.72;5063060;28;20025;-74
2022/01/18 08:24:34;;;;;;;3.83;1.45;;;;;;;3.13;65.51;101410.97;5062764;28;20102;-73
2022/01/18 08:27:00;;;;;;;9.75;2.83;;;;;;;3.15;66.51;101439.16;5014456;28;20036;-73
2022/01/18 08:29:25;;;;;;;3.25;1.42;;;;;;;3.17;65.77;101424.88;5061881;28;20035;-74
2022/01/18 08:31:51;;;;;;;2.70;1.40;;;;;;;3.38;67.34;101448.72;5062086;28;20021;-73
2022/01/18 08:34:16;;;;;;;5.45;1.70;;;;;;;3.12;65.70;101419.38;5060667;28;20100;-73
2022/01/18 08:36:42;;;;;;;2.70;1.33;;;;;;;3.30;66.00;101448.09;5062368;28;20024;-74
2022/01/18 08:39:08;;;;;;;2.30;1.45;;;;;;;3.28;65.20;101452.16;5061463;28;20032;-73
2022/01/18 08:41:35;;;;;;;6.97;1.63;;;;;;;3.38;66.32;101454.69;5061035;28;20043;-74
2022/01/18 08:46:48;;;;;;;2.55;1.50;;;;;;;3.08;66.52;101397.84;5083291;27;20942;-74
2022/01/18 08:49:14;;;;;;;3.83;1.55;;;;;;;3.34;65.36;101445.00;5077093;28;20099;-74
2022/01/18 08:51:40;;;;;;;3.67;1.48;;;;;;;3.21;63.66;101398.84;5060945;28;21861;-74
2022/01/18 08:54:06;;;;;;;4.90;1.80;;;;;;;3.46;65.78;101446.78;5058228;28;20059;-74
2022/01/18 08:56:31;;;;;;;4.78;1.80;;;;;;;3.65;66.97;101456.81;5066704;28;20100;-74
2022/01/18 08:58:57;;;;;;;3.95;1.80;;;;;;;3.75;67.48;101450.78;5056708;28;20028;-75
2022/01/18 09:01:22;;;;;;;2.75;1.40;;;;;;;3.70;65.68;101469.19;5060011;28;20028;-74
2022/01/18 09:03:49;;;;;;;3.63;1.70;;;;;;;3.80;65.81;101452.03;5064585;28;20036;-74
2022/01/18 09:06:16;;;;;;;4.15;1.70;;;;;;;3.66;63.52;101435.63;5066750;28;20118;-74
2022/01/18 09:08:43;;;;;;;6.30;1.77;;;;;;;3.82;65.54;101459.06;5067008;28;20090;-74
2022/01/18 09:11:12;;;;;;;2.22;1.50;;;;;;;3.44;65.02;101387.03;5014757;28;20472;-75
2022/01/18 09:13:55;;;;;;;4.63;1.60;;;;;;;3.75;63.17;101412.47;5003132;28;20034;-75
2022/01/18 09:16:21;;;;;;;3.65;1.60;;;;;;;3.76;62.36;101404.91;5001156;28;20038;-74
2022/01/18 09:18:47;;;;;;;2.35;1.02;;;;;;;3.95;61.90;101455.84;5003118;28;20092;-74
2022/01/18 09:21:14;;;;;;;2.97;1.50;;;;;;;3.80;62.92;101406.06;5004519;28;20026;-74
2022/01/18 09:23:40;;;;;;;2.85;1.60;;;;;;;3.86;62.26;101388.66;5004787;28;20062;-74
2022/01/18 09:26:06;;;;;;;3.80;1.70;;;;;;;4.14;61.24;101417.28;5004612;28;20546;-74
2022/01/18 09:28:32;;;;;;;4.32;1.90;;;;;;;4.16;61.70;101408.09;5004511;28;20092;-74
2022/01/18 09:30:59;;;;;;;4.53;1.83;;;;;;;4.36;62.60;101411.25;5004229;28;20037;-74
2022/01/18 09:33:24;;;;;;;2.47;1.30;;;;;;;4.47;60.39;101440.22;5004373;28;20132;-74
2022/01/18 09:35:50;;;;;;;3.15;1.40;;;;;;;4.05;59.56;101404.69;5004412;28;20022;-74
2022/01/18 09:38:16;;;;;;;4.78;1.40;;;;;;;4.41;60.21;101414.19;5004472;28;20554;-74
2022/01/18 09:40:43;;;;;;;4.75;2.08;;;;;;;4.28;60.69;101404.69;5004341;28;20038;-74
2022/01/18 09:43:12;;;;;;;4.15;1.95;;;;;;;4.65;60.50;101418.63;5002489;28;20101;-74
2022/01/18 09:45:41;;;;;;;4.97;2.03;;;;;;;4.72;59.15;101426.75;5035067;28;20053;-74
2022/01/18 09:48:08;;;;;;;3.00;1.50;;;;;;;4.92;57.13;101424.06;5035932;28;20084;-74
2022/01/18 09:50:36;;;;;;;3.33;1.70;;;;;;;4.87;58.46;101407.44;5039938;28;20052;-74
2022/01/18 09:53:04;;;;;;;4.78;2.30;;;;;;;4.67;59.47;101395.72;5034017;28;20040;-74
2022/01/18 09:55:31;;;;;;;4.65;2.00;;;;;;;5.07;58.91;101406.41;5043567;28;20104;-74
2022/01/18 09:57:58;;;;;;;4.13;1.63;;;;;;;5.26;59.82;101402.59;5019642;28;20040;-74
2022/01/18 10:00:26;;;;;;;7.18;2.05;;;;;;;5.35;58.20;101395.63;5020616;28;20387;-74
2022/01/18 10:02:51;;;;;;;4.60;1.75;;;;;;;5.40;58.67;101378.91;5025224;28;20037;-74
2022/01/18 10:05:28;;;;;;;5.90;1.80;;;;;;;5.65;58.45;101380.69;5030723;28;20761;-74
2022/01/18 10:08:04;;;;;;;3.08;1.60;;;;;;;5.59;58.23;101385.38;5032351;28;20087;-74
2022/01/18 10:10:47;;;;;;;3.88;1.50;;;;;;;5.64;59.42;101378.88;5032030;28;20042;-74
2022/01/18 10:13:18;;;;;;;3.75;1.50;;;;;;;5.76;57.33;101390.00;5030771;28;20029;-75
2022/01/18 10:16:02;;;;;;;3.15;1.55;;;;;;;5.12;53.02;101355.53;5026517;28;20042;-75
2022/01/18 10:18:35;;;;;;;3.92;1.70;;;;;;;5.30;51.07;101382.47;5030060;28;20021;-75
2022/01/18 10:21:01;;;;;;;5.78;1.95;;;;;;;5.54;52.29;101372.22;5032074;28;20031;-74
2022/01/18 10:23:26;;;;;;;3.28;1.40;;;;;;;5.67;51.04;101344.13;5031675;28;20108;-74
2022/01/18 10:25:53;;;;;;;3.97;2.63;;;;;;;5.25;49.30;101250.69;5032426;28;20033;-75
2022/01/18 10:28:45;;;;;;;4.57;1.40;;;;;;;5.91;47.14;101361.16;5032942;28;20099;-72
2022/01/18 10:31:28;;;;;;;2.38;1.20;;;;;;;5.94;47.21;101361.34;4936270;29;20640;-74
2022/01/18 10:34:21;;;;;;;3.08;1.35;;;;;;;6.13;46.92;101340.47;4932206;29;20035;-74
2022/01/18 10:37:03;;;;;;;2.78;1.20;;;;;;;5.82;46.72;101353.69;4953085;29;20081;-71
2022/01/18 10:39:37;;;;;;;3.35;1.50;;;;;;;5.82;48.37;101348.56;4951896;29;20485;-72
2022/01/18 10:42:19;;;;;;;2.33;1.30;;;;;;;5.49;47.01;101330.91;4951990;29;20039;-72
2022/01/18 10:44:59;;;;;;;2.88;1.50;;;;;;;5.81;48.26;101331.41;4954855;28;20134;-73
2022/01/18 10:47:25;;;;;;;;;;;;;;;6.00;45.21;101333.59;4959834;28;20075;-72
2022/01/18 10:49:50;;;;;;;3.47;1.40;;;;;;;6.09;44.18;101333.34;4951869;29;19918;-74
2022/01/18 10:52:20;;;;;;;3.45;1.33;;;;;;;5.91;41.62;101312.44;4951760;29;20035;-72
2022/01/18 10:54:54;;;;;;;3.13;1.20;;;;;;;5.86;44.15;101306.09;4951776;29;20562;-73
2022/01/18 10:57:24;;;;;;;2.65;1.40;;;;;;;5.72;41.51;101311.16;4951634;29;20268;-73
2022/01/18 11:00:09;;;;;;;2.55;1.27;;;;;;;6.17;41.29;101327.09;4951573;29;20031;-73
2022/01/18 11:02:40;;;;;;;3.10;1.08;;;;;;;6.40;42.50;101310.69;4951202;29;20031;-76
2022/01/18 11:05:19;;;;;;;3.08;1.33;;;;;;;6.40;38.06;101320.06;4951257;29;20039;-71
2022/01/18 11:07:47;;;;;;;3.33;1.90;;;;;;;6.64;39.05;101325.94;4975340;28;20085;-72
2022/01/18 11:10:14;;;;;;;3.65;2.03;;;;;;;6.41;40.36;101317.59;5022282;28;20030;-72
2022/01/18 11:15:53;;;;;;;3.33;1.40;;;;;;;6.49;41.06;101300.16;4967646;28;20093;-73
2022/01/18 11:18:45;;;;;;;3.33;1.55;;;;;;;6.49;41.40;101312.97;4954078;28;20098;-72
2022/01/18 11:21:07;;;;;;;4.18;2.35;;;;;;;6.65;41.42;101325.16;4986248;28;20085;-70
2022/01/18 11:23:34;;;;;;;2.08;1.20;;;;;;;6.44;41.57;101316.91;4965297;28;20054;-71
2022/01/18 11:26:00;;;;;;;1.63;1.20;;;;;;;6.14;41.25;101296.09;4969879;28;20088;-70
2022/01/18 11:28:26;;;;;;;3.70;1.80;;;;;;;6.39;42.39;101308.94;4968154;28;20031;-70
2022/01/18 11:30:52;;;;;;;4.28;1.90;;;;;;;5.96;43.06;101219.69;4971787;28;20034;-70
2022/01/18 11:33:20;;;;;;;3.80;1.95;;;;;;;6.09;42.03;101316.31;4980400;28;20057;-70
2022/01/18 11:35:58;;;;;;;3.60;1.98;;;;;;;5.94;41.64;101310.09;4979609;28;20061;-70
2022/01/18 11:38:34;;;;;;;4.63;1.88;;;;;;;5.85;43.00;101296.66;4989415;28;20084;-72
2022/01/18 11:41:02;;;;;;;3.25;2.40;;;;;;;5.95;42.36;101304.19;4988530;28;20042;-71
2022/01/18 11:43:43;;;;;;;5.18;2.05;;;;;;;6.26;39.60;101303.75;4980760;28;20030;-71
2022/01/18 11:46:22;;;;;;;2.35;1.40;;;;;;;6.36;40.84;101302.69;5017779;28;20151;-69
2022/01/18 11:48:49;;;;;;;7.22;3.15;;;;;;;6.25;41.80;101305.41;5026897;28;20045;-66
2022/01/18 11:51:16;;;;;;;4.40;2.17;;;;;;;5.75;40.57;101292.56;5008361;28;20048;-69
2022/01/18 11:53:53;;;;;;;2.30;1.40;;;;;;;5.85;39.16;101302.66;5035271;28;20052;-70
2022/01/18 11:56:42;;;;;;;4.30;1.77;;;;;;;5.81;37.65;101295.53;5049058;28;20455;-76
2022/01/18 11:59:17;;;;;;;4.60;2.33;;;;;;;5.89;37.22;101306.31;5048068;28;20113;-73
2022/01/18 12:01:50;;;;;;;3.97;1.90;;;;;;;5.64;37.81;101281.53;5059780;28;20417;-73
2022/01/18 12:04:49;;;;;;;3.85;1.70;;;;;;;5.96;37.77;101294.03;5047203;28;20028;-73
2022/01/18 12:07:47;;;;;;;;;;;;;;;6.26;38.33;101285.81;5039951;28;20037;-74
2022/01/18 12:10:32;;;;;;;3.30;1.70;;;;;;;6.37;39.31;101301.88;5058512;28;19916;-72
2022/01/18 12:13:13;;;;;;;5.68;2.65;;;;;;;6.36;39.39;101297.56;5058490;28;20028;-73
2022/01/18 12:15:43;;;;;;;3.53;1.60;;;;;;;6.37;38.66;101291.63;5056356;28;20031;-71
2022/01/18 12:18:19;;;;;;;3.63;1.67;;;;;;;6.55;41.72;101309.94;5058677;28;20032;-74
2022/01/18 12:20:47;;;;;;;5.40;1.80;;;;;;;6.13;39.52;101313.16;5035133;28;20495;-73
2022/01/18 12:23:40;;;;;;;4.47;1.85;;;;;;;5.97;42.33;101318.88;5043677;28;20031;-73
2022/01/18 12:26:26;;;;;;;2.65;1.58;;;;;;;6.01;42.94;101321.66;4988186;28;20128;-73
2022/01/18 12:32:17;;;;;;;4.57;1.50;;;;;;;5.68;42.54;101329.66;4918079;29;20548;-72
2022/01/18 12:34:46;;;;;;;2.72;1.45;;;;;;;5.65;43.94;101321.75;4928566;29;20501;-74
2022/01/18 12:37:23;;;;;;;2.95;1.65;;;;;;;5.75;45.02;101336.09;4929466;29;20059;-73
2022/01/18 12:39:55;;;;;;;4.15;1.80;;;;;;;5.71;43.16;101336.66;4929644;29;20035;-73
2022/01/18 12:44:58;;;;;;;5.43;1.90;;;;;;;5.66;43.42;101326.09;4921805;29;20579;-74
2022/01/18 12:47:23;;;;;;;6.38;1.85;;;;;;;5.67;42.36;101331.31;4915464;29;20130;-72
2022/01/18 12:49:51;;;;;;;3.33;1.50;;;;;;;5.77;41.47;101347.34;4912231;29;20127;-72
2022/01/18 12:52:16;;;;;;;3.95;1.70;;;;;;;5.62;43.81;101317.31;4933598;28;20118;-73
2022/01/18 12:54:42;;;;;;;1.42;1.10;;;;;;;5.62;40.08;101337.81;4940006;29;20605;-70
2022/01/18 12:57:18;;;;;;;2.45;1.30;;;;;;;5.68;41.07;101337.31;4944414;28;20043;-70
2022/01/18 13:00:16;;;;;;;2.60;1.55;;;;;;;5.83;41.56;101330.75;4950128;28;20067;-71